Airfield :
LOGIN :

Register | Disclaimer

   EN    FR    IT 

 










Legend :    VFR   Marginal VFR   IFR   Intensive IFR   Very Intensive IFR
Visi :
Ceiling :
>= 8 km
>= 3000ft
5 to 8 km
1000 to 3000 ft
1500m to 5 km
500 to 1000 ft
800 to 1500m
200 to 500 ft
< 800m
< 200 ft
Symbols :   Thunderstorms  Fog  Heavy snow  Heavy precipitations  Wind > 20 kt
SIGMETs :     Misc.  Thunderstorms  Icing  Turbulence  Mountain Waves  Volcanic Ashes






- Airport Elevation : 622 ft
- IATA code : BRS


EGGD - Bristol Int.

CURRENT METAR :
  • 251020Z AUTO 28011KT 9999 BKN023 15/09 Q1017

EXPIRED METARs :
  • 250950Z AUTO 28010KT 240V310 9999 FEW025 SCT029 16/09 Q1017
  • 250920Z 29010KT 9999 SCT022 SCT030 15/10 Q1018
  • 250850Z AUTO 29011KT 9999 SCT022 BKN027 15/10 Q1018
  • 250820Z 29011KT 9999 SCT021 SCT030 15/10 Q1018
  • 250750Z AUTO 29010KT 9999 SCT018 BKN022 15/11 Q1018

TAF AMD TAF EGGD
Valid from the 25 at 06:00 until the 26 at 06:00 UTC


250605Z 2506/2606 28010KT 9999 FEW010 SCT030
PROB30 2506/2508 6000 BKN008
PROB30
TEMPO 2515/2524 6000 SHRA BKN010
BECMG 2518/2521 15006KT
TEMPO 2600/2606 6000
PROB30 2600/2606 3000 BR BKN006
ATIS : +44 1275 473 666



MET'MAP, your aeronautical weather chart ! - Copyright ORBIFLY December 2007 - Disclaimer

ORBIFLY MET'MAP TEAM :

Programming & Development : Alexandra Zaïnal
Concept & original design : Baudouin d'Aumeries
Assistance for programming : Marc-Olivier Méhu
Technical & hardware support : Manuel Goepfert

Contact : metmap@orbifly.com




SOURCES & CREDITS :

   NOAA